Time;durP1;ratioP1;P1;durP2;ratioP2;P2;SDS_P1;SDS_P2;PMS_P1;PMS_P2;Temp;Humidity;BMP_temperature;BMP_pressure;BME280_temperature;BME280_humidity;BME280_pressure;Samples;Min_cycle;Max_cycle;Signal;HPM_P1;HPM_P2
2020/12/18 00:00:52;;;;;;;40.15;25.35;;;;;;;5.06;82.21;100980.23;1731941;81;27201;-79
2020/12/18 00:03:18;;;;;;;38.58;25.95;;;;;;;4.71;82.37;100991.17;1727642;81;25287;-78
2020/12/18 00:05:44;;;;;;;36.48;23.80;;;;;;;4.72;82.73;100985.02;1736524;81;28905;-78
2020/12/18 00:08:10;;;;;;;37.58;23.73;;;;;;;4.53;82.74;100986.66;1737189;80;27424;-78
2020/12/18 00:10:38;;;;;;;37.55;24.10;;;;;;;4.57;82.52;100991.60;1747629;80;21847;-79
2020/12/18 00:13:04;;;;;;;33.65;23.75;;;;;;;4.60;82.70;100990.10;1739637;81;21565;-78
2020/12/18 00:15:30;;;;;;;33.40;22.45;;;;;;;4.68;82.38;100985.21;1734258;80;25149;-79
2020/12/18 00:17:55;;;;;;;33.00;22.32;;;;;;;4.60;82.08;100988.79;1742660;80;28430;-80
2020/12/18 00:20:21;;;;;;;34.40;22.77;;;;;;;4.65;81.86;100989.33;1743482;81;26797;-81
2020/12/18 00:22:47;;;;;;;36.77;21.85;;;;;;;4.56;82.10;100988.60;1733419;82;21332;-79
2020/12/18 00:25:14;;;;;;;34.53;22.58;;;;;;;4.60;82.10;100987.48;1760072;81;26780;-80
2020/12/18 00:27:41;;;;;;;34.10;22.30;;;;;;;4.61;81.91;100983.91;1747139;81;21064;-80
2020/12/18 00:30:09;;;;;;;39.70;23.22;;;;;;;4.57;81.98;100987.67;1742284;81;21228;-80
2020/12/18 00:32:39;;;;;;;30.32;20.90;;;;;;;4.53;81.99;100979.64;1730110;81;21152;-79
2020/12/18 00:35:05;;;;;;;35.25;21.80;;;;;;;4.61;81.89;100985.70;1737726;81;21318;-81
2020/12/18 00:37:32;;;;;;;34.03;21.97;;;;;;;4.53;81.80;100984.88;1746701;80;21166;-81
2020/12/18 00:39:57;;;;;;;34.38;22.40;;;;;;;4.44;82.46;100987.61;1738437;81;21210;-82
2020/12/18 00:42:23;;;;;;;36.70;23.57;;;;;;;4.43;82.29;100985.92;1729934;82;28371;-82
2020/12/18 00:44:49;;;;;;;34.30;22.65;;;;;;;4.52;82.30;100994.95;1731161;81;26894;-82
2020/12/18 00:47:15;;;;;;;39.98;24.95;;;;;;;4.37;82.45;100999.37;1746305;82;21820;-81
2020/12/18 00:49:41;;;;;;;41.30;25.92;;;;;;;4.45;82.34;101001.05;1746015;82;26832;-81
2020/12/18 00:52:08;;;;;;;45.88;27.82;;;;;;;4.46;82.22;100994.05;1746165;82;21162;-80
2020/12/18 00:54:33;;;;;;;54.75;29.30;;;;;;;4.51;82.00;101001.14;1746170;80;21192;-81
2020/12/18 00:56:59;;;;;;;56.65;33.48;;;;;;;4.45;81.91;100996.29;1746399;81;26768;-81
2020/12/18 00:59:25;;;;;;;60.75;34.27;;;;;;;4.29;82.41;100991.18;1732860;81;21309;-81
2020/12/18 01:02:00;;;;;;;65.62;34.43;;;;;;;4.35;82.22;100996.48;1730489;81;25757;-81
2020/12/18 01:04:26;;;;;;;62.48;36.35;;;;;;;4.42;82.33;100993.87;1730152;81;21192;-81
2020/12/18 01:06:54;;;;;;;68.30;36.88;;;;;;;4.53;81.91;100997.95;1743068;82;28361;-81
2020/12/18 01:09:24;;;;;;;72.00;39.90;;;;;;;4.59;81.48;100995.42;1755097;80;21134;-81
2020/12/18 01:11:50;;;;;;;76.67;41.10;;;;;;;4.50;81.52;100991.60;1752841;80;21181;-81
2020/12/18 01:14:16;;;;;;;75.22;41.15;;;;;;;4.57;81.47;100988.98;1755763;80;26850;-81
2020/12/18 01:16:42;;;;;;;80.17;42.13;;;;;;;4.66;81.48;100985.78;1762301;80;21189;-82
2020/12/18 01:19:07;;;;;;;78.83;44.18;;;;;;;4.76;81.33;100983.89;1762534;81;28414;-81
2020/12/18 01:21:34;;;;;;;83.97;44.67;;;;;;;4.81;81.04;100973.97;1762678;81;27295;-81
2020/12/18 01:24:00;;;;;;;88.25;47.93;;;;;;;4.79;80.54;100974.55;1753639;81;21994;-81
2020/12/18 01:26:26;;;;;;;89.95;47.60;;;;;;;4.70;80.87;100973.82;1754991;81;21585;-81
2020/12/18 01:28:51;;;;;;;90.38;45.70;;;;;;;4.63;80.67;100976.83;1755154;80;25677;-82
2020/12/18 01:31:17;;;;;;;88.10;47.55;;;;;;;4.65;80.71;100968.87;1756345;81;28280;-80
2020/12/18 01:33:43;;;;;;;84.50;47.13;;;;;;;4.70;80.87;100971.20;1762814;81;26809;-80
2020/12/18 01:36:09;;;;;;;92.42;47.30;;;;;;;4.77;80.61;100960.70;1759519;80;21902;-82
2020/12/18 01:38:35;;;;;;;96.78;47.75;;;;;;;4.72;80.56;100964.09;1754344;81;26879;-80
2020/12/18 01:41:01;;;;;;;84.72;46.75;;;;;;;4.83;80.70;100970.77;1757514;81;21066;-82
2020/12/18 01:43:26;;;;;;;89.87;48.68;;;;;;;4.90;80.68;100972.06;1762267;81;28344;-81
2020/12/18 01:45:52;;;;;;;83.78;45.83;;;;;;;4.81;80.33;100976.58;1757480;80;27326;-81
2020/12/18 01:48:18;;;;;;;85.30;45.43;;;;;;;4.80;80.52;100976.20;1755468;81;21859;-80
2020/12/18 01:50:44;;;;;;;87.30;46.50;;;;;;;4.81;80.49;100973.97;1760562;81;21607;-80
2020/12/18 01:53:10;;;;;;;88.60;46.83;;;;;;;4.80;80.61;100972.27;1753197;81;25989;-80
2020/12/18 01:55:36;;;;;;;84.65;45.40;;;;;;;4.87;80.54;100969.64;1751924;81;21207;-79
2020/12/18 01:58:02;;;;;;;95.95;48.17;;;;;;;4.91;80.33;100965.91;1755122;81;21293;-79
2020/12/18 02:00:28;;;;;;;89.15;46.65;;;;;;;4.85;80.43;100973.67;1759185;81;21744;-80
2020/12/18 02:02:54;;;;;;;84.62;46.48;;;;;;;4.89;80.61;100966.45;1767169;80;26837;-80
2020/12/18 02:05:21;;;;;;;86.60;46.85;;;;;;;4.87;80.34;100965.72;1785343;80;21196;-80
2020/12/18 02:08:01;;;;;;;87.85;47.83;;;;;;;4.92;80.53;100964.95;1757062;81;21194;-80
2020/12/18 02:10:27;;;;;;;84.95;45.73;;;;;;;4.96;80.45;100967.74;1760449;81;21181;-79
2020/12/18 02:12:55;;;;;;;86.78;45.67;;;;;;;4.99;80.34;100958.38;1762978;80;21870;-82
2020/12/18 02:15:21;;;;;;;97.57;48.17;;;;;;;4.88;80.23;100960.87;1758635;80;21189;-80
2020/12/18 02:17:49;;;;;;;87.95;46.60;;;;;;;4.81;80.87;100968.73;1754931;80;21072;-81
2020/12/18 02:20:16;;;;;;;;;;;;;;;4.79;81.15;100970.62;1755883;80;21079;-80
2020/12/18 02:22:42;;;;;;;86.90;46.18;;;;;;;4.76;81.33;100973.43;1756491;80;20256;-81
2020/12/18 02:25:09;;;;;;;85.40;45.85;;;;;;;4.76;81.29;100974.73;1751782;81;21887;-81
2020/12/18 02:27:36;;;;;;;90.65;46.10;;;;;;;4.82;81.33;100981.72;1751620;81;21176;-80
2020/12/18 02:30:10;;;;;;;87.22;46.77;;;;;;;4.89;81.29;100979.53;1751603;81;21891;-81
2020/12/18 02:32:35;;;;;;;88.78;47.75;;;;;;;4.99;81.12;100983.25;1732444;82;21624;-81
2020/12/18 02:35:02;;;;;;;85.20;46.00;;;;;;;5.09;80.83;100984.79;1731968;81;26840;-81
2020/12/18 02:37:28;;;;;;;89.37;45.52;;;;;;;5.11;80.37;100988.62;1738510;81;22067;-81
2020/12/18 02:40:00;;;;;;;86.28;47.55;;;;;;;5.01;80.12;100970.89;1761718;80;21066;-81
2020/12/18 02:42:26;;;;;;;88.97;47.38;;;;;;;5.10;80.32;100973.88;1760762;78;21044;-82
2020/12/18 02:44:52;;;;;;;85.15;47.03;;;;;;;5.07;80.39;100980.61;1763132;79;28757;-81
2020/12/18 02:47:18;;;;;;;83.72;44.15;;;;;;;4.96;80.51;100978.21;1763836;81;26719;-81
2020/12/18 02:49:43;;;;;;;82.72;44.75;;;;;;;4.97;80.56;100981.21;1764691;80;21885;-81
2020/12/18 02:52:10;;;;;;;84.42;47.00;;;;;;;4.91;80.81;100972.45;1794330;80;26840;-81
2020/12/18 02:54:36;;;;;;;81.10;44.17;;;;;;;4.93;80.90;100974.48;1794330;80;21160;-82
2020/12/18 02:57:02;;;;;;;84.55;45.55;;;;;;;5.01;80.79;100970.89;1794160;80;28328;-81
2020/12/18 02:59:28;;;;;;;82.42;43.70;;;;;;;5.00;80.67;100973.61;1784690;80;21232;-81
2020/12/18 03:01:53;;;;;;;90.45;47.30;;;;;;;4.98;80.58;100964.55;1736531;80;21956;-81
2020/12/18 03:04:19;;;;;;;90.62;46.88;;;;;;;5.04;80.59;100967.24;1753384;80;26773;-81
2020/12/18 03:06:45;;;;;;;86.95;47.50;;;;;;;5.01;80.52;100970.89;1759311;80;25238;-81
2020/12/18 03:09:11;;;;;;;84.50;46.37;;;;;;;5.02;80.54;100964.73;1759447;81;28417;-81
2020/12/18 03:11:37;;;;;;;84.58;44.60;;;;;;;4.97;80.67;100960.72;1746753;81;21481;-81
2020/12/18 03:14:03;;;;;;;85.62;47.20;;;;;;;4.95;80.74;100960.82;1743098;80;21899;-78
2020/12/18 03:16:29;;;;;;;85.92;46.75;;;;;;;4.94;80.91;100968.32;1741908;81;26869;-78
2020/12/18 03:18:56;;;;;;;83.33;44.98;;;;;;;4.91;81.20;100964.59;1745951;81;21226;-81
2020/12/18 03:21:22;;;;;;;96.47;46.70;;;;;;;4.85;81.26;100963.20;1746159;82;21138;-81
2020/12/18 03:23:47;;;;;;;86.90;45.75;;;;;;;4.79;81.69;100972.75;1746344;82;27153;-80
2020/12/18 03:26:13;;;;;;;84.40;46.02;;;;;;;4.71;82.14;100969.80;1746435;82;21779;-80
2020/12/18 03:28:39;;;;;;;90.55;46.73;;;;;;;4.65;82.70;100976.25;1746390;82;26843;-80
2020/12/18 03:31:05;;;;;;;84.42;44.83;;;;;;;4.74;82.70;100980.07;1746483;81;25500;-80
2020/12/18 03:33:31;;;;;;;87.82;45.67;;;;;;;4.83;82.66;100987.33;1743892;80;21153;-80
2020/12/18 03:35:57;;;;;;;86.80;45.60;;;;;;;4.80;82.47;100988.84;1731795;82;26723;-81
2020/12/18 03:38:23;;;;;;;81.85;46.23;;;;;;;4.88;82.66;100980.94;1731818;81;21160;-81
2020/12/18 03:40:49;;;;;;;91.45;46.88;;;;;;;4.94;82.96;100980.09;1746913;81;26749;-81
2020/12/18 03:43:15;;;;;;;85.90;47.20;;;;;;;4.94;82.82;100978.80;1766332;81;24309;-81
2020/12/18 03:45:40;;;;;;;84.28;47.25;;;;;;;4.98;82.79;100971.09;1766248;79;28421;-81
2020/12/18 03:48:06;;;;;;;85.15;46.13;;;;;;;4.94;83.04;100971.39;1769007;79;26790;-81
2020/12/18 03:50:32;;;;;;;89.28;47.75;;;;;;;4.90;83.07;100966.83;1777400;80;21837;-81
2020/12/18 03:52:57;;;;;;;89.70;47.33;;;;;;;4.89;83.42;100970.38;1746113;80;26762;-81
2020/12/18 03:55:23;;;;;;;86.63;47.63;;;;;;;4.92;83.65;100971.48;1731697;81;23845;-81
2020/12/18 03:57:49;;;;;;;84.22;45.98;;;;;;;4.88;83.65;100972.64;1732532;81;28368;-81
2020/12/18 04:00:15;;;;;;;92.20;48.60;;;;;;;4.93;83.84;100974.48;1747403;81;27034;-80
2020/12/18 04:02:40;;;;;;;87.42;46.35;;;;;;;4.96;83.72;100972.98;1767015;81;21931;-80
2020/12/18 04:05:06;;;;;;;87.60;47.70;;;;;;;4.94;83.63;100967.46;1767018;79;26802;-81
2020/12/18 04:07:32;;;;;;;87.82;45.50;;;;;;;5.07;83.43;100963.59;1766332;80;24608;-79
2020/12/18 04:09:57;;;;;;;84.15;46.65;;;;;;;5.10;83.23;100966.02;1782202;80;28323;-81
2020/12/18 04:12:23;;;;;;;91.05;48.90;;;;;;;5.03;83.39;100953.33;1788979;80;26743;-80
2020/12/18 04:14:49;;;;;;;85.20;45.92;;;;;;;4.95;83.69;100963.44;1785989;80;21989;-80
2020/12/18 04:17:15;;;;;;;92.40;48.50;;;;;;;5.03;83.80;100961.18;1757690;81;26848;-80
2020/12/18 04:19:41;;;;;;;84.80;45.80;;;;;;;5.05;83.85;100965.00;1757733;81;25428;-80
2020/12/18 04:22:06;;;;;;;87.57;47.70;;;;;;;5.11;83.62;100969.84;1764212;80;28295;-80
2020/12/18 04:24:32;;;;;;;90.03;47.40;;;;;;;5.16;83.53;100974.78;1788732;80;26821;-80
2020/12/18 04:26:58;;;;;;;86.05;46.90;;;;;;;5.13;83.28;100974.50;1785929;80;21917;-80
2020/12/18 04:29:24;;;;;;;82.53;46.58;;;;;;;5.13;83.38;100973.67;1788825;80;26957;-80
2020/12/18 04:31:49;;;;;;;93.67;49.15;;;;;;;4.95;83.60;100979.14;1788627;80;24854;-80
2020/12/18 04:34:15;;;;;;;89.75;48.30;;;;;;;4.97;84.05;100975.97;1772980;80;28462;-80
2020/12/18 04:36:41;;;;;;;85.25;45.60;;;;;;;4.98;83.89;100978.94;1757676;81;26720;-80
2020/12/18 04:39:06;;;;;;;85.45;47.53;;;;;;;4.94;84.17;100982.72;1757725;81;21908;-80
2020/12/18 04:41:33;;;;;;;87.75;47.78;;;;;;;4.91;84.09;100976.37;1748564;81;26820;-80
2020/12/18 04:44:00;;;;;;;85.00;48.50;;;;;;;4.82;84.34;100978.27;1756926;81;21186;-80
2020/12/18 04:46:25;;;;;;;90.62;45.95;;;;;;;4.82;84.43;100963.88;1731782;81;21220;-80
2020/12/18 04:48:51;;;;;;;82.53;45.15;;;;;;;4.86;84.37;100984.97;1757470;81;27325;-80
2020/12/18 04:51:21;;;;;;;84.65;46.92;;;;;;;4.91;84.39;100978.12;1757607;81;21144;-80
2020/12/18 04:53:49;;;;;;;93.80;46.08;;;;;;;4.95;84.27;100976.52;1757420;81;21643;-80
2020/12/18 04:56:20;;;;;;;84.92;46.10;;;;;;;4.98;84.23;100975.49;1757581;81;21078;-80
2020/12/18 04:58:45;;;;;;;83.87;45.58;;;;;;;5.03;84.16;100978.20;1757736;81;21657;-80
2020/12/18 05:01:11;;;;;;;87.92;47.20;;;;;;;5.09;83.86;100982.65;1755117;80;26734;-80
2020/12/18 05:03:37;;;;;;;89.47;48.00;;;;;;;5.01;84.00;100983.98;1750011;81;21774;-80
2020/12/18 05:06:06;;;;;;;81.15;45.23;;;;;;;5.04;84.04;100982.47;1757067;80;26823;-80
2020/12/18 05:08:31;;;;;;;86.17;46.63;;;;;;;5.08;83.93;100982.27;1757703;81;21187;-80
2020/12/18 05:10:58;;;;;;;90.20;47.55;;;;;;;4.99;84.09;100986.34;1759991;81;28362;-80
2020/12/18 05:13:24;;;;;;;92.20;45.67;;;;;;;4.66;85.28;100998.87;1761357;81;21213;-80
2020/12/18 05:15:51;;;;;;;82.70;44.25;;;;;;;4.49;86.15;101001.71;1758612;80;21198;-82
2020/12/18 05:18:21;;;;;;;88.62;47.23;;;;;;;4.41;86.50;101002.19;1763496;80;21184;-81
2020/12/18 05:20:46;;;;;;;82.40;45.45;;;;;;;4.34;87.06;100994.81;1719291;81;21176;-80
2020/12/18 05:23:12;;;;;;;83.72;46.02;;;;;;;4.30;87.43;100998.06;1763731;80;28401;-80
2020/12/18 05:25:38;;;;;;;85.40;46.37;;;;;;;4.34;87.44;100996.13;1762415;81;26766;-80
2020/12/18 05:28:05;;;;;;;81.32;45.63;;;;;;;4.51;86.95;100990.67;1777172;80;22276;-80
2020/12/18 05:30:31;;;;;;;88.22;44.30;;;;;;;4.60;86.64;100996.64;1762519;81;21181;-81
2020/12/18 05:32:57;;;;;;;80.20;44.83;;;;;;;4.66;86.46;100997.56;1760169;80;23683;-80
2020/12/18 05:35:23;;;;;;;80.42;44.23;;;;;;;4.74;86.13;101004.06;1748664;81;28354;-80
2020/12/18 05:37:51;;;;;;;82.12;43.73;;;;;;;4.76;85.93;101011.38;1738125;81;26863;-80
2020/12/18 05:40:17;;;;;;;;;;;;;;;4.85;85.76;101012.09;1737154;81;21601;-80
2020/12/18 05:42:46;;;;;;;90.65;43.87;;;;;;;4.74;85.82;101004.06;1748082;80;20617;-80
2020/12/18 05:45:19;;;;;;;79.05;42.95;;;;;;;4.68;86.16;101007.45;1733993;80;21201;-80
2020/12/18 05:48:00;;;;;;;87.45;44.27;;;;;;;4.52;86.82;101009.34;1754642;79;21020;-79
2020/12/18 05:50:34;;;;;;;77.47;43.20;;;;;;;4.26;88.08;101007.88;1763254;80;21571;-80
2020/12/18 05:53:03;;;;;;;78.22;43.92;;;;;;;4.26;88.42;101008.36;1762439;80;21266;-82
2020/12/18 05:55:36;;;;;;;82.70;43.75;;;;;;;4.23;88.68;101009.38;1757922;81;21618;-79
2020/12/18 05:58:02;;;;;;;67.78;39.08;;;;;;;4.24;89.05;101017.61;1734608;81;21221;-79
2020/12/18 06:00:28;;;;;;;83.40;44.58;;;;;;;4.20;89.06;101025.25;1756993;81;21205;-82
2020/12/18 06:02:59;;;;;;;78.47;43.28;;;;;;;4.14;89.47;101025.62;1761967;81;26805;-79
2020/12/18 06:05:25;;;;;;;75.22;38.40;;;;;;;4.19;89.66;101024.04;1762833;81;22398;-80
2020/12/18 06:07:52;;;;;;;74.97;40.65;;;;;;;4.13;89.84;101026.55;1763086;80;26916;-80
2020/12/18 06:10:24;;;;;;;85.40;40.52;;;;;;;4.04;90.52;101031.02;1758578;81;21155;-80
2020/12/18 06:12:49;;;;;;;78.02;40.65;;;;;;;4.14;90.31;101032.98;1746561;82;21167;-80
2020/12/18 06:15:18;;;;;;;71.80;41.10;;;;;;;4.19;90.10;101032.71;1746234;82;26808;-80
2020/12/18 06:17:47;;;;;;;74.90;38.70;;;;;;;4.33;89.81;101033.66;1755768;80;21176;-80
2020/12/18 06:20:14;;;;;;;67.90;36.42;;;;;;;4.39;89.29;101031.97;1731866;81;21142;-80
2020/12/18 06:22:58;;;;;;;;;;;;;;;4.49;89.08;101035.72;1734654;81;21144;-80
2020/12/18 06:25:23;;;;;;;69.12;39.88;;;;;;;4.60;89.06;101034.56;1747782;80;20232;-82
2020/12/18 06:27:57;;;;;;;80.60;40.08;;;;;;;4.59;88.77;101035.50;1735732;80;28104;-80
2020/12/18 06:30:23;;;;;;;75.12;39.67;;;;;;;4.52;89.08;101032.88;1755864;80;22020;-80
2020/12/18 06:32:48;;;;;;;78.62;41.73;;;;;;;4.59;89.10;101035.50;1716702;80;21158;-78
2020/12/18 06:35:34;;;;;;;78.02;39.63;;;;;;;4.55;89.18;101040.53;1731853;81;25001;-79
2020/12/18 06:38:18;;;;;;;72.40;39.40;;;;;;;4.43;89.74;101042.16;1743508;80;21464;-79
2020/12/18 06:40:43;;;;;;;76.97;40.75;;;;;;;4.35;90.56;101046.16;1768189;80;21618;-80
2020/12/18 06:43:09;;;;;;;88.40;41.05;;;;;;;4.26;91.13;101056.25;1754091;80;21925;-79
2020/12/18 06:45:35;;;;;;;81.17;38.90;;;;;;;4.35;91.49;101060.54;1739562;80;21223;-80
2020/12/18 06:48:27;;;;;;;95.70;43.80;;;;;;;4.21;92.09;101053.09;1744954;81;21162;-79
2020/12/18 06:50:52;;;;;;;90.35;43.20;;;;;;;4.23;92.52;101062.97;1745760;82;21221;-80
2020/12/18 06:53:18;;;;;;;98.75;44.88;;;;;;;4.23;92.86;101068.20;1737239;80;27365;-78
2020/12/18 06:55:44;;;;;;;88.70;43.35;;;;;;;4.23;93.04;101065.59;1731461;81;21977;-80
2020/12/18 07:01:57;;;;;;;96.70;45.50;;;;;;;4.02;94.55;101068.18;1734930;79;21531;-81
2020/12/18 07:04:23;;;;;;;104.27;43.83;;;;;;;4.12;94.92;101071.94;1743322;80;21056;-80
2020/12/18 07:06:48;;;;;;;112.72;47.03;;;;;;;4.16;94.63;101077.34;1766481;79;26592;-81
2020/12/18 07:09:16;;;;;;;100.18;43.85;;;;;;;4.15;94.89;101079.59;1764703;79;21880;-80
2020/12/18 07:15:46;;;;;;;96.42;42.67;;;;;;;4.24;95.12;101093.88;1767961;79;21053;-81
2020/12/18 07:18:30;;;;;;;107.50;45.78;;;;;;;4.25;94.86;101101.63;1760277;79;21172;-81
2020/12/18 07:20:59;;;;;;;106.83;45.90;;;;;;;4.25;95.12;101099.01;1770292;80;21164;-82
2020/12/18 07:23:27;;;;;;;97.45;44.80;;;;;;;4.34;95.08;101099.41;1769844;80;21232;-81
2020/12/18 07:25:53;;;;;;;104.78;46.08;;;;;;;4.31;94.81;101092.10;1770065;80;21161;-80
2020/12/18 07:28:19;;;;;;;103.32;42.55;;;;;;;4.35;95.01;101102.38;1752485;81;21176;-83
2020/12/18 07:30:47;;;;;;;100.02;44.38;;;;;;;4.38;94.73;101102.20;1770271;80;21119;-80
2020/12/18 07:33:16;;;;;;;101.78;41.85;;;;;;;4.35;95.04;101103.69;1770300;81;21145;-81
2020/12/18 07:35:48;;;;;;;98.92;46.13;;;;;;;4.35;95.17;101102.38;1770302;80;21156;-80
2020/12/18 07:38:18;;;;;;;106.95;48.15;;;;;;;4.40;95.41;101102.96;1770391;79;21010;-80
2020/12/18 07:40:44;;;;;;;101.40;44.63;;;;;;;4.31;95.49;101105.17;1770480;80;21010;-80
2020/12/18 07:43:14;;;;;;;107.58;48.42;;;;;;;4.37;95.56;101103.15;1770379;81;21193;-80
2020/12/18 07:45:48;;;;;;;106.12;45.65;;;;;;;4.27;96.28;101102.84;1770103;81;21188;-80
2020/12/18 07:48:20;;;;;;;95.03;45.55;;;;;;;4.49;96.09;101108.95;1770181;80;22083;-79
2020/12/18 07:51:01;;;;;;;110.22;47.53;;;;;;;4.43;95.65;101113.23;1770269;80;21639;-80
2020/12/18 07:53:28;;;;;;;103.90;47.23;;;;;;;4.39;96.19;101120.41;1770188;81;21139;-80
2020/12/18 07:56:03;;;;;;;122.20;46.95;;;;;;;4.48;95.95;101112.48;1770281;79;21144;-81
2020/12/18 07:58:29;;;;;;;102.35;46.42;;;;;;;4.47;95.95;101114.72;1770283;80;21144;-79
2020/12/18 08:01:09;;;;;;;92.42;43.42;;;;;;;4.36;96.70;101107.52;1770310;79;21136;-80
2020/12/18 08:03:38;;;;;;;100.67;45.03;;;;;;;4.46;96.68;101112.58;1769888;80;21018;-81
2020/12/18 08:06:05;;;;;;;110.63;50.52;;;;;;;4.41;97.04;101117.25;1746804;79;21202;-80
2020/12/18 08:08:34;;;;;;;112.47;46.53;;;;;;;4.42;97.48;101124.15;1746454;81;21233;-81
2020/12/18 08:11:02;;;;;;;102.15;47.60;;;;;;;4.43;97.50;101117.99;1756334;80;21542;-79
2020/12/18 08:13:29;;;;;;;103.22;48.35;;;;;;;4.41;97.71;101120.31;1752651;81;21385;-83
2020/12/18 08:16:10;;;;;;;105.20;45.38;;;;;;;4.43;97.83;101123.70;1740183;81;21208;-80
2020/12/18 08:18:36;;;;;;;102.07;47.50;;;;;;;4.41;97.99;101126.85;1744902;82;21279;-80
2020/12/18 08:21:02;;;;;;;98.00;46.45;;;;;;;4.54;97.89;101126.95;1745777;81;21178;-79
2020/12/18 08:23:28;;;;;;;113.60;49.58;;;;;;;4.50;97.86;101130.22;1745864;82;21171;-79
2020/12/18 08:25:53;;;;;;;105.37;50.43;;;;;;;4.50;98.01;101127.61;1746366;81;22696;-81
2020/12/18 08:28:19;;;;;;;104.87;49.40;;;;;;;4.50;98.23;101140.69;1754540;80;26516;-81
2020/12/18 08:30:45;;;;;;;105.52;48.68;;;;;;;4.51;98.24;101133.70;1777260;80;25760;-82
2020/12/18 08:33:11;;;;;;;107.45;49.13;;;;;;;4.66;97.92;101128.37;1776990;80;28547;-82
2020/12/18 08:35:37;;;;;;;105.95;48.73;;;;;;;4.62;97.98;101136.02;1776844;80;21197;-81
2020/12/18 08:38:09;;;;;;;104.65;49.08;;;;;;;4.65;98.21;101137.14;1777189;80;21870;-82
2020/12/18 08:40:42;;;;;;;106.17;49.93;;;;;;;4.59;98.59;101135.37;1761516;80;21227;-81
2020/12/18 08:43:12;;;;;;;102.67;50.55;;;;;;;4.64;98.35;101143.30;1734796;80;21204;-82
2020/12/18 08:45:42;;;;;;;107.45;49.10;;;;;;;4.58;99.05;101141.05;1731275;81;21205;-82
2020/12/18 08:48:08;;;;;;;101.72;46.23;;;;;;;4.62;99.02;101147.80;1740970;80;21210;-79
2020/12/18 08:50:34;;;;;;;108.05;51.58;;;;;;;4.74;98.57;101145.36;1739332;81;21262;-79
2020/12/18 08:53:13;;;;;;;99.35;47.53;;;;;;;4.71;98.86;101143.79;1750979;81;21207;-80
2020/12/18 08:55:40;;;;;;;107.50;48.55;;;;;;;4.76;98.62;101146.13;1766371;81;21081;-79
2020/12/18 08:58:09;;;;;;;115.50;50.05;;;;;;;4.77;98.83;101151.71;1770571;80;21096;-78
2020/12/18 09:00:35;;;;;;;106.75;49.38;;;;;;;4.81;98.92;101145.37;1747710;77;21141;-79
2020/12/18 09:03:04;;;;;;;119.15;52.53;;;;;;;4.94;98.70;101153.30;1760003;80;21774;-80
2020/12/18 09:05:34;;;;;;;113.57;50.50;;;;;;;4.98;98.64;101145.64;1777961;79;22149;-79
2020/12/18 09:08:05;;;;;;;98.97;46.80;;;;;;;5.11;98.17;101140.47;1777213;80;21189;-79
2020/12/18 09:10:39;;;;;;;105.65;47.75;;;;;;;5.19;97.48;101140.84;1777103;80;21105;-80
2020/12/18 09:13:21;;;;;;;109.63;49.13;;;;;;;5.19;97.35;101139.53;1777367;80;21225;-79
2020/12/18 09:15:53;;;;;;;111.22;50.03;;;;;;;5.15;97.76;101132.80;1773532;80;21188;-79
2020/12/18 09:18:24;;;;;;;108.35;49.42;;;;;;;5.18;97.68;101145.70;1774760;80;21233;-79
2020/12/18 09:20:50;;;;;;;105.52;49.05;;;;;;;5.15;97.93;101144.59;1770736;80;21619;-80
2020/12/18 09:23:17;;;;;;;108.27;50.55;;;;;;;5.14;97.96;101151.61;1746298;81;21162;-80
2020/12/18 09:25:48;;;;;;;107.60;51.23;;;;;;;5.13;98.16;101143.38;1746554;81;21456;-80
2020/12/18 09:28:18;;;;;;;103.62;49.00;;;;;;;5.21;97.97;101150.27;1706300;83;21246;-80
2020/12/18 09:30:53;;;;;;;114.67;51.33;;;;;;;5.19;98.00;101154.77;1715229;83;21206;-80
2020/12/18 09:33:26;;;;;;;101.22;47.27;;;;;;;5.18;98.02;101162.24;1739715;80;21193;-79
2020/12/18 09:36:08;;;;;;;109.25;49.88;;;;;;;5.18;98.16;101145.22;1741087;80;21186;-79
2020/12/18 09:38:44;;;;;;;99.70;48.55;;;;;;;5.30;97.66;101151.47;1732064;81;21222;-78
2020/12/18 09:41:19;;;;;;;103.50;50.15;;;;;;;5.25;97.84;101154.86;1741348;82;21193;-78
2020/12/18 09:43:44;;;;;;;99.97;48.50;;;;;;;5.29;97.94;101158.12;1749725;82;21194;-79
2020/12/18 09:46:13;;;;;;;99.30;47.73;;;;;;;5.34;97.71;101149.49;1756538;80;23804;-80
2020/12/18 09:48:40;;;;;;;99.72;47.70;;;;;;;5.36;97.60;101162.87;1777257;80;21560;-79
2020/12/18 09:51:06;;;;;;;91.63;46.13;;;;;;;5.36;97.42;101153.70;1743948;80;21179;-79
2020/12/18 09:53:32;;;;;;;100.82;47.85;;;;;;;5.44;97.27;101154.53;1733852;80;21241;-80
2020/12/18 09:55:58;;;;;;;99.95;47.95;;;;;;;5.42;97.17;101152.94;1745966;80;27259;-79
2020/12/18 09:58:25;;;;;;;92.62;44.50;;;;;;;5.43;97.41;101161.17;1772772;80;25806;-80
2020/12/18 10:00:50;;;;;;;95.47;48.37;;;;;;;5.49;97.17;101155.55;1735157;81;21096;-80
2020/12/18 10:03:16;;;;;;;92.90;45.28;;;;;;;5.47;97.17;101155.64;1730040;82;26733;-80
2020/12/18 10:05:45;;;;;;;91.45;45.83;;;;;;;5.49;97.07;101161.61;1729838;81;21832;-79
2020/12/18 10:08:10;;;;;;;81.97;43.78;;;;;;;5.43;97.26;101158.55;1750791;81;21724;-82
2020/12/18 10:10:36;;;;;;;94.85;46.53;;;;;;;5.52;97.19;101160.59;1737781;81;25245;-81
2020/12/18 10:13:02;;;;;;;85.25;44.98;;;;;;;5.62;96.96;101165.59;1730519;82;28422;-81
2020/12/18 10:15:28;;;;;;;86.90;45.08;;;;;;;5.60;96.61;101163.55;1768608;79;26791;-81
2020/12/18 10:17:54;;;;;;;86.90;44.73;;;;;;;5.55;96.77;101174.80;1779956;80;21687;-80
2020/12/18 10:20:20;;;;;;;90.22;45.92;;;;;;;5.62;96.61;101159.03;1762403;80;27247;-80
2020/12/18 10:22:46;;;;;;;89.00;46.60;;;;;;;5.67;96.64;101160.91;1752193;80;21151;-81
2020/12/18 10:25:12;;;;;;;82.57;43.85;;;;;;;5.69;96.29;101161.64;1746368;80;28562;-81
2020/12/18 10:27:39;;;;;;;89.40;45.25;;;;;;;5.73;96.19;101159.20;1745322;82;21250;-79
2020/12/18 10:30:05;;;;;;;97.12;47.20;;;;;;;5.84;95.76;101158.95;1743930;80;21201;-77
2020/12/18 10:32:31;;;;;;;86.10;44.80;;;;;;;5.73;96.10;101161.83;1747175;81;21649;-79
2020/12/18 10:34:57;;;;;;;85.45;44.58;;;;;;;5.81;95.99;101164.39;1750054;80;25270;-80
2020/12/18 10:37:23;;;;;;;89.13;45.60;;;;;;;5.86;95.81;101159.23;1744021;80;28898;-77
2020/12/18 10:39:50;;;;;;;91.42;48.50;;;;;;;5.80;95.74;101171.91;1751094;81;27384;-79
2020/12/18 10:42:16;;;;;;;87.42;46.15;;;;;;;5.83;95.71;101171.70;1752609;80;21235;-78
2020/12/18 10:44:42;;;;;;;82.15;44.58;;;;;;;5.85;95.85;101175.89;1750957;80;21217;-78
2020/12/18 10:47:08;;;;;;;83.90;44.15;;;;;;;5.94;95.48;101171.84;1751145;80;24419;-80
2020/12/18 10:49:33;;;;;;;83.87;46.18;;;;;;;5.92;95.45;101165.38;1741431;80;28350;-80
2020/12/18 10:52:01;;;;;;;84.77;45.95;;;;;;;5.90;95.21;101157.23;1751401;81;26763;-79
2020/12/18 10:54:28;;;;;;;78.40;43.35;;;;;;;5.95;95.08;101160.42;1747116;80;21384;-78
2020/12/18 10:56:55;;;;;;;78.10;44.65;;;;;;;5.97;94.92;101161.18;1746406;80;21272;-79
2020/12/18 10:59:22;;;;;;;82.65;42.38;;;;;;;5.98;94.99;101162.87;1745796;80;21168;-78
2020/12/18 11:01:53;;;;;;;83.22;45.25;;;;;;;6.08;94.72;101163.92;1744277;81;21182;-78
2020/12/18 11:04:19;;;;;;;74.40;43.30;;;;;;;6.02;94.62;101164.33;1748328;80;21732;-78
2020/12/18 11:06:45;;;;;;;78.67;44.00;;;;;;;6.06;94.62;101159.71;1747884;81;21739;-78
2020/12/18 11:09:11;;;;;;;73.92;40.85;;;;;;;6.07;94.17;101158.30;1753319;81;26664;-78
2020/12/18 11:11:36;;;;;;;79.80;45.38;;;;;;;6.10;94.47;101155.95;1744929;81;25454;-78
2020/12/18 11:14:02;;;;;;;85.38;45.03;;;;;;;6.06;94.33;101163.20;1744302;81;29742;-76
2020/12/18 11:16:28;;;;;;;78.83;45.23;;;;;;;6.02;94.43;101165.64;1746779;80;26863;-78
2020/12/18 11:19:01;;;;;;;79.97;44.65;;;;;;;6.05;94.47;101157.57;1740940;81;22414;-77
2020/12/18 11:21:24;;;;;;;78.35;43.63;;;;;;;6.03;94.60;101163.39;1746551;81;22090;-76
2020/12/18 11:23:49;;;;;;;74.82;41.73;;;;;;;6.15;94.45;101156.95;1751299;79;25924;-77
2020/12/18 11:26:15;;;;;;;74.15;42.10;;;;;;;6.14;94.08;101167.06;1745529;80;29037;-79